createdAt,value
2022-09-21T00:00:48.675Z,13.20
2022-09-21T00:03:16.072Z,13.20
2022-09-21T00:05:44.461Z,13.20
2022-09-21T00:08:13.411Z,13.20
2022-09-21T00:10:41.190Z,13.20
2022-09-21T00:13:09.160Z,13.20
2022-09-21T00:15:36.574Z,13.20
2022-09-21T00:18:04.264Z,13.20
2022-09-21T00:20:31.491Z,13.20
2022-09-21T00:22:58.796Z,13.20
2022-09-21T00:25:26.184Z,13.20
2022-09-21T00:27:54.443Z,13.20
2022-09-21T00:30:21.848Z,13.10
2022-09-21T00:32:49.207Z,13.10
2022-09-21T00:35:16.631Z,13.10
2022-09-21T00:37:44.191Z,13.10
2022-09-21T00:40:11.924Z,13.10
2022-09-21T00:42:39.404Z,13.00
2022-09-21T00:45:07.133Z,13.00
2022-09-21T00:47:35.991Z,13.00
2022-09-21T00:50:06.304Z,13.00
2022-09-21T00:52:36.875Z,13.00
2022-09-21T00:55:15.943Z,13.00
2022-09-21T00:57:44.446Z,13.00
2022-09-21T01:00:11.990Z,13.00
2022-09-21T01:02:39.447Z,12.90
2022-09-21T01:05:07.860Z,12.90
2022-09-21T01:07:37.301Z,12.90
2022-09-21T01:10:06.711Z,12.90
2022-09-21T01:12:33.967Z,12.90
2022-09-21T01:15:13.483Z,12.80
2022-09-21T01:17:58.920Z,12.80
2022-09-21T01:20:32.256Z,12.80
2022-09-21T01:23:17.198Z,12.80
2022-09-21T01:25:44.581Z,12.80
2022-09-21T01:28:20.550Z,12.80
2022-09-21T01:30:50.176Z,12.80
2022-09-21T01:33:24.158Z,12.80
2022-09-21T01:35:54.632Z,12.70
2022-09-21T01:38:38.707Z,12.70
2022-09-21T01:41:08.338Z,12.70
2022-09-21T01:43:37.895Z,12.70
2022-09-21T01:46:06.568Z,12.70
2022-09-21T01:48:37.002Z,12.70
2022-09-21T01:51:07.519Z,12.70
2022-09-21T01:53:39.922Z,12.70
2022-09-21T01:56:16.304Z,12.70
2022-09-21T01:58:46.995Z,12.70
2022-09-21T02:01:18.120Z,12.70
2022-09-21T02:04:05.383Z,12.70
2022-09-21T02:06:33.174Z,12.70
2022-09-21T02:09:00.815Z,12.70
2022-09-21T02:11:28.179Z,12.70
2022-09-21T02:13:55.923Z,12.60
2022-09-21T02:16:35.803Z,12.60
2022-09-21T02:19:09.537Z,12.50
2022-09-21T02:21:55.484Z,12.40
2022-09-21T02:24:26.632Z,12.40
2022-09-21T02:27:00.002Z,12.30
2022-09-21T02:29:50.499Z,12.20
2022-09-21T02:32:25.670Z,12.20
2022-09-21T02:35:04.388Z,12.10
2022-09-21T02:37:37.966Z,12.10
2022-09-21T02:40:31.442Z,12.10
2022-09-21T02:43:06.279Z,12.00
2022-09-21T02:45:37.880Z,12.00
2022-09-21T02:48:18.947Z,12.00
2022-09-21T02:50:51.976Z,12.00
2022-09-21T02:53:21.090Z,12.00
2022-09-21T02:55:56.333Z,12.00
2022-09-21T02:58:26.102Z,12.00
2022-09-21T03:00:55.479Z,11.90
2022-09-21T03:03:25.019Z,11.90
2022-09-21T03:05:53.205Z,11.90
2022-09-21T03:08:20.583Z,11.90
2022-09-21T03:10:50.925Z,11.80
2022-09-21T03:13:19.178Z,11.80
2022-09-21T03:15:47.451Z,11.80
2022-09-21T03:18:15.359Z,11.70
2022-09-21T03:20:48.445Z,11.70
2022-09-21T03:23:15.916Z,11.70
2022-09-21T03:25:46.597Z,11.60
2022-09-21T03:28:14.924Z,11.60
2022-09-21T03:30:42.809Z,11.60
2022-09-21T03:33:10.446Z,11.60
2022-09-21T03:35:38.169Z,11.60
2022-09-21T03:38:05.790Z,11.60
2022-09-21T03:40:33.331Z,11.60
2022-09-21T03:43:00.636Z,11.60
2022-09-21T03:45:27.939Z,11.70
2022-09-21T03:47:57.005Z,11.70
2022-09-21T03:50:28.714Z,11.70
2022-09-21T03:52:56.809Z,11.70
2022-09-21T03:55:24.501Z,11.70
2022-09-21T03:57:51.883Z,11.80
2022-09-21T04:00:19.291Z,11.80
2022-09-21T04:02:46.674Z,11.90
2022-09-21T04:05:15.352Z,11.90
2022-09-21T04:07:43.691Z,11.90
2022-09-21T04:10:14.860Z,12.00
2022-09-21T04:12:43.588Z,12.00
2022-09-21T04:15:19.806Z,12.00
2022-09-21T04:17:47.477Z,12.10
2022-09-21T04:20:14.780Z,12.10
2022-09-21T04:22:43.666Z,12.10
2022-09-21T04:25:12.601Z,12.10
2022-09-21T04:27:40.123Z,12.20
2022-09-21T04:30:08.020Z,12.20
2022-09-21T04:32:35.336Z,12.20
2022-09-21T04:35:02.798Z,12.30
2022-09-21T04:37:30.615Z,12.30
2022-09-21T04:39:58.192Z,12.30
2022-09-21T04:42:25.712Z,12.30
2022-09-21T04:44:53.652Z,12.40
2022-09-21T04:47:23.894Z,12.40
2022-09-21T04:49:52.494Z,12.40
2022-09-21T04:52:20.108Z,12.40
2022-09-21T04:54:48.143Z,12.40
2022-09-21T04:57:15.699Z,12.40
2022-09-21T04:59:43.154Z,12.50
2022-09-21T05:02:10.434Z,12.50
2022-09-21T05:04:37.734Z,12.50
2022-09-21T05:07:05.125Z,12.50
2022-09-21T05:09:50.843Z,12.50
2022-09-21T05:12:18.140Z,12.50
2022-09-21T05:14:45.722Z,12.50
2022-09-21T05:17:13.488Z,12.50
2022-09-21T05:19:41.062Z,12.60
2022-09-21T05:22:08.504Z,12.60
2022-09-21T05:24:35.819Z,12.60
2022-09-21T05:27:03.303Z,12.60
2022-09-21T05:29:31.286Z,12.60
2022-09-21T05:32:19.041Z,12.60
2022-09-21T05:35:06.865Z,12.60
2022-09-21T05:37:38.045Z,12.60
2022-09-21T05:40:05.985Z,12.70
2022-09-21T05:42:33.707Z,12.70
2022-09-21T05:45:01.757Z,12.70
2022-09-21T05:47:49.446Z,12.70
2022-09-21T05:50:26.511Z,12.70
2022-09-21T05:52:53.920Z,12.70
2022-09-21T05:55:32.258Z,12.70
2022-09-21T05:57:59.680Z,12.70
2022-09-21T06:00:27.707Z,12.70
2022-09-21T06:02:55.281Z,12.70
2022-09-21T06:05:22.903Z,12.70
2022-09-21T06:07:50.408Z,12.70
2022-09-21T06:10:17.936Z,12.70
2022-09-21T06:12:45.444Z,12.60
2022-09-21T06:15:14.702Z,12.60
2022-09-21T06:17:42.043Z,12.60
2022-09-21T06:20:09.718Z,12.70
2022-09-21T06:22:36.975Z,12.70
2022-09-21T06:25:04.562Z,12.60
2022-09-21T06:27:31.886Z,12.70
2022-09-21T06:29:59.168Z,12.70
2022-09-21T06:32:26.660Z,12.70
2022-09-21T06:34:54.412Z,12.70
2022-09-21T06:37:21.889Z,12.70
2022-09-21T06:39:49.244Z,12.70
2022-09-21T06:42:16.667Z,12.70
2022-09-21T06:44:44.143Z,12.80
2022-09-21T06:47:11.632Z,12.80
2022-09-21T06:49:42.347Z,12.90
2022-09-21T06:52:10.140Z,12.90
2022-09-21T06:54:37.471Z,12.90
2022-09-21T06:57:04.755Z,12.90
2022-09-21T06:59:32.025Z,13.00
2022-09-21T07:01:59.827Z,13.00
2022-09-21T07:04:27.172Z,13.10
2022-09-21T07:06:54.578Z,13.10
2022-09-21T07:12:09.341Z,13.30
2022-09-21T07:14:36.684Z,13.40
2022-09-21T07:17:03.995Z,13.40
2022-09-21T07:19:31.299Z,13.50
2022-09-21T07:21:58.576Z,13.60
2022-09-21T07:24:25.924Z,13.60
2022-09-21T07:26:53.308Z,13.70
2022-09-21T07:29:20.525Z,13.70
2022-09-21T07:31:48.646Z,13.80
2022-09-21T07:34:15.989Z,13.90
2022-09-21T07:36:43.592Z,13.90
2022-09-21T07:39:11.125Z,14.00
2022-09-21T07:41:39.003Z,14.10
2022-09-21T07:44:06.427Z,14.20
2022-09-21T07:46:33.934Z,14.30
2022-09-21T07:49:01.256Z,14.40
2022-09-21T07:51:28.580Z,14.50
2022-09-21T07:53:59.622Z,14.50
2022-09-21T07:56:26.968Z,14.60
2022-09-21T07:59:06.391Z,14.70
2022-09-21T08:01:37.958Z,14.80
2022-09-21T08:04:09.603Z,14.90
2022-09-21T08:06:40.546Z,15.00
2022-09-21T08:09:08.939Z,15.10
2022-09-21T08:11:37.735Z,15.20
2022-09-21T08:14:05.309Z,15.30
2022-09-21T08:16:34.258Z,15.40
2022-09-21T08:19:03.483Z,15.50
2022-09-21T08:21:31.026Z,15.60
2022-09-21T08:23:58.440Z,15.80
2022-09-21T08:29:08.911Z,16.00
2022-09-21T08:31:36.348Z,16.10
2022-09-21T08:34:03.808Z,16.20
2022-09-21T08:36:31.260Z,16.30
2022-09-21T08:38:58.723Z,16.40
2022-09-21T08:41:44.682Z,16.50
2022-09-21T08:44:18.088Z,16.60
2022-09-21T08:46:46.985Z,16.60
2022-09-21T08:49:20.037Z,16.70
2022-09-21T08:51:50.851Z,16.80
2022-09-21T08:54:29.733Z,16.80
2022-09-21T08:57:05.840Z,16.90
2022-09-21T08:59:34.327Z,17.00
2022-09-21T09:02:24.725Z,17.00
2022-09-21T09:04:52.094Z,17.10
2022-09-21T09:07:22.620Z,17.10
2022-09-21T09:09:59.128Z,17.10
2022-09-21T09:12:35.970Z,17.20
2022-09-21T09:15:15.413Z,17.20
2022-09-21T09:17:54.287Z,17.30
2022-09-21T09:20:24.393Z,17.30
2022-09-21T09:23:06.077Z,17.30
2022-09-21T09:25:38.027Z,17.40
2022-09-21T09:28:31.659Z,17.40
2022-09-21T09:31:05.378Z,17.50
2022-09-21T09:33:39.098Z,17.60
2022-09-21T09:36:07.179Z,17.70
2022-09-21T09:38:37.820Z,17.70
2022-09-21T09:41:20.302Z,17.80
2022-09-21T09:44:06.167Z,17.90
2022-09-21T09:46:54.072Z,18.00
2022-09-21T09:49:24.419Z,18.10
2022-09-21T09:51:51.892Z,18.20
2022-09-21T09:54:20.723Z,18.30
2022-09-21T09:56:48.450Z,18.40
2022-09-21T09:59:28.977Z,18.50
2022-09-21T10:02:19.728Z,18.50
2022-09-21T10:05:15.501Z,18.60
2022-09-21T10:07:44.194Z,18.70
2022-09-21T10:10:34.171Z,18.70
2022-09-21T10:13:12.943Z,18.80
2022-09-21T10:15:50.193Z,18.80
2022-09-21T10:18:20.602Z,18.80
2022-09-21T10:20:55.062Z,18.80
2022-09-21T10:23:23.272Z,18.90
2022-09-21T10:25:54.583Z,18.90
2022-09-21T10:28:39.726Z,19.00
2022-09-21T10:31:10.196Z,19.00
2022-09-21T10:33:57.794Z,18.90
2022-09-21T10:36:26.755Z,19.00
2022-09-21T10:38:54.134Z,19.00
2022-09-21T10:41:21.607Z,18.90
2022-09-21T10:43:50.981Z,18.90
2022-09-21T10:46:32.115Z,18.90
2022-09-21T10:48:59.497Z,18.80
2022-09-21T10:51:29.392Z,18.80
2022-09-21T10:53:57.485Z,18.70
2022-09-21T10:56:25.247Z,18.60
2022-09-21T10:59:15.518Z,18.60
2022-09-21T11:01:52.687Z,18.60
2022-09-21T11:04:24.302Z,18.60
2022-09-21T11:06:53.679Z,18.60
2022-09-21T11:09:30.203Z,18.60
2022-09-21T11:12:17.279Z,18.60
2022-09-21T11:15:10.656Z,18.60
2022-09-21T11:17:40.735Z,18.60
2022-09-21T11:20:14.251Z,18.70
2022-09-21T11:22:45.924Z,18.80
2022-09-21T11:25:32.713Z,18.80
2022-09-21T11:28:26.168Z,18.90
2022-09-21T11:30:56.520Z,18.80
2022-09-21T11:33:44.166Z,18.80
2022-09-21T11:36:23.358Z,18.90
2022-09-21T11:39:01.143Z,18.90
2022-09-21T11:41:31.314Z,18.90
2022-09-21T11:44:09.686Z,18.80
2022-09-21T11:46:56.932Z,18.80
2022-09-21T11:49:39.531Z,18.80
2022-09-21T11:52:16.009Z,18.80
2022-09-21T11:55:09.945Z,18.90
2022-09-21T11:57:44.921Z,18.90
2022-09-21T12:00:16.225Z,18.90
2022-09-21T12:03:02.453Z,18.90
2022-09-21T12:05:38.878Z,19.00
2022-09-21T12:08:09.797Z,19.10
2022-09-21T12:10:40.204Z,19.10
2022-09-21T12:13:19.792Z,19.20
2022-09-21T12:15:55.785Z,19.20
2022-09-21T12:18:45.493Z,19.30
2022-09-21T12:21:28.208Z,19.40
2022-09-21T12:23:57.133Z,19.40
2022-09-21T12:26:27.591Z,19.50
2022-09-21T12:29:00.948Z,19.60
2022-09-21T12:31:44.362Z,19.50
2022-09-21T12:34:16.186Z,19.50
2022-09-21T12:36:47.899Z,19.50
2022-09-21T12:39:41.647Z,19.40
2022-09-21T12:42:22.963Z,19.40
2022-09-21T12:45:00.060Z,19.30
2022-09-21T12:47:48.907Z,19.30
2022-09-21T12:50:36.331Z,19.20
2022-09-21T12:53:04.299Z,19.20
2022-09-21T12:55:31.648Z,19.20
2022-09-21T12:58:14.442Z,19.10
2022-09-21T13:01:01.389Z,19.10
2022-09-21T13:03:36.398Z,19.10
2022-09-21T13:06:07.013Z,19.00
2022-09-21T13:08:37.037Z,19.00
2022-09-21T13:11:05.954Z,19.10
2022-09-21T13:13:41.801Z,19.10
2022-09-21T13:16:22.920Z,19.10
2022-09-21T13:18:55.753Z,19.20
2022-09-21T13:21:27.213Z,19.30
2022-09-21T13:23:58.498Z,19.30
2022-09-21T13:26:35.066Z,19.40
2022-09-21T13:29:07.160Z,19.40
2022-09-21T13:31:56.271Z,19.40
2022-09-21T13:34:34.778Z,19.50
2022-09-21T13:37:18.086Z,19.50
2022-09-21T13:39:48.461Z,19.50
2022-09-21T13:42:30.964Z,19.40
2022-09-21T13:44:59.254Z,19.40
2022-09-21T13:47:38.832Z,19.50
2022-09-21T13:50:21.230Z,19.50
2022-09-21T13:52:52.298Z,19.50
2022-09-21T13:55:25.276Z,19.50
2022-09-21T13:57:57.682Z,19.50
2022-09-21T14:00:31.132Z,19.60
2022-09-21T14:03:04.591Z,19.60
2022-09-21T14:05:39.666Z,19.50
2022-09-21T14:08:19.646Z,19.60
2022-09-21T14:10:57.871Z,19.60
2022-09-21T14:13:27.960Z,19.60
2022-09-21T14:15:55.521Z,19.60
2022-09-21T14:18:45.715Z,19.60
2022-09-21T14:21:20.185Z,19.60
2022-09-21T14:24:08.014Z,19.70
2022-09-21T14:26:41.603Z,19.70
2022-09-21T14:29:11.824Z,19.70
2022-09-21T14:31:39.609Z,19.80
2022-09-21T14:34:12.172Z,19.80
2022-09-21T14:36:42.599Z,19.90
2022-09-21T14:39:25.064Z,19.90
2022-09-21T14:41:55.057Z,20.00
2022-09-21T14:44:25.860Z,20.10
2022-09-21T14:46:56.890Z,20.10
2022-09-21T14:49:41.049Z,20.20
2022-09-21T14:52:32.409Z,20.30
2022-09-21T14:55:02.814Z,20.50
2022-09-21T14:57:48.691Z,20.70
2022-09-21T15:00:22.349Z,20.80
2022-09-21T15:02:55.000Z,21.00
2022-09-21T15:05:35.547Z,21.20
2022-09-21T15:08:44.679Z,21.30
2022-09-21T15:11:27.372Z,21.50
2022-09-21T15:14:13.098Z,21.60
2022-09-21T15:16:49.047Z,21.70
2022-09-21T15:19:19.226Z,21.80
2022-09-21T15:21:49.808Z,21.80
2022-09-21T15:24:19.367Z,21.90
2022-09-21T15:26:47.715Z,22.00
2022-09-21T15:29:24.817Z,22.00
2022-09-21T15:31:52.271Z,22.10
2022-09-21T15:34:19.657Z,22.10
2022-09-21T15:36:51.167Z,22.10
2022-09-21T15:39:28.962Z,22.10
2022-09-21T15:42:11.652Z,22.10
2022-09-21T15:44:39.635Z,22.10
2022-09-21T15:47:08.686Z,22.10
2022-09-21T15:49:36.469Z,22.10
2022-09-21T15:52:09.046Z,22.00
2022-09-21T15:54:46.805Z,22.00
2022-09-21T15:57:36.794Z,22.00
2022-09-21T16:00:08.163Z,21.90
2022-09-21T16:02:37.276Z,21.90
2022-09-21T16:05:05.234Z,21.80
2022-09-21T16:07:34.049Z,21.70
2022-09-21T16:10:02.174Z,21.60
2022-09-21T16:12:39.862Z,21.50
2022-09-21T16:15:13.990Z,21.50
2022-09-21T16:17:52.937Z,21.40
2022-09-21T16:20:23.644Z,21.30
2022-09-21T16:22:52.998Z,21.10
2022-09-21T16:25:20.664Z,21.00
2022-09-21T16:27:58.662Z,21.00
2022-09-21T16:30:40.356Z,20.90
2022-09-21T16:33:27.941Z,20.80
2022-09-21T16:35:58.082Z,20.70
2022-09-21T16:38:25.800Z,20.60
2022-09-21T16:40:54.336Z,20.60
2022-09-21T16:43:23.535Z,20.50
2022-09-21T16:45:51.024Z,20.40
2022-09-21T16:48:19.105Z,20.30
2022-09-21T16:50:47.085Z,20.20
2022-09-21T16:53:14.380Z,20.10
2022-09-21T16:55:43.167Z,19.90
2022-09-21T16:58:10.574Z,19.80
2022-09-21T17:00:40.522Z,19.80
2022-09-21T17:03:07.864Z,19.70
2022-09-21T17:05:35.257Z,19.60
2022-09-21T17:08:02.718Z,19.40
2022-09-21T17:10:33.402Z,19.30
2022-09-21T17:13:01.181Z,19.30
2022-09-21T17:15:30.978Z,19.10
2022-09-21T17:17:59.887Z,19.00
2022-09-21T17:20:27.600Z,18.90
2022-09-21T17:22:56.326Z,18.80
2022-09-21T17:25:23.992Z,18.70
2022-09-21T17:27:53.366Z,18.60
2022-09-21T17:30:21.370Z,18.50
2022-09-21T17:32:50.299Z,18.40
2022-09-21T17:35:22.845Z,18.30
2022-09-21T17:37:50.335Z,18.20
2022-09-21T17:40:19.331Z,18.20
2022-09-21T17:42:50.289Z,18.10
2022-09-21T17:45:46.423Z,18.00
2022-09-21T17:48:18.540Z,17.90
2022-09-21T17:50:48.979Z,17.80
2022-09-21T17:53:35.365Z,17.70
2022-09-21T17:56:31.472Z,17.60
2022-09-21T17:59:06.282Z,17.50
2022-09-21T18:01:38.037Z,17.40
2022-09-21T18:04:06.211Z,17.40
2022-09-21T18:06:39.540Z,17.30
2022-09-21T18:09:07.903Z,17.20
2022-09-21T18:11:55.792Z,17.10
2022-09-21T18:14:37.743Z,17.10
2022-09-21T18:17:14.757Z,17.00
2022-09-21T18:19:51.614Z,16.90
2022-09-21T18:22:35.907Z,16.90
2022-09-21T18:25:25.132Z,16.80
2022-09-21T18:27:56.322Z,16.80
2022-09-21T18:30:24.349Z,16.70
2022-09-21T18:32:52.673Z,16.70
2022-09-21T18:35:27.785Z,16.60
2022-09-21T18:37:55.524Z,16.60
2022-09-21T18:40:26.214Z,16.50
2022-09-21T18:42:54.243Z,16.40
2022-09-21T18:45:30.100Z,16.40
2022-09-21T18:48:29.863Z,16.40
2022-09-21T18:51:06.442Z,16.30
2022-09-21T18:53:56.109Z,16.20
2022-09-21T18:56:24.229Z,16.20
2022-09-21T18:58:52.021Z,16.10
2022-09-21T19:01:22.244Z,16.10
2022-09-21T19:03:50.602Z,16.00
2022-09-21T19:06:21.278Z,16.00
2022-09-21T19:09:07.808Z,15.90
2022-09-21T19:11:53.701Z,15.80
2022-09-21T19:14:24.446Z,15.80
2022-09-21T19:17:04.376Z,15.70
2022-09-21T19:19:50.217Z,15.70
2022-09-21T19:22:29.146Z,15.60
2022-09-21T19:25:00.849Z,15.60
2022-09-21T19:27:28.207Z,15.50
2022-09-21T19:29:56.297Z,15.40
2022-09-21T19:32:50.736Z,15.40
2022-09-21T19:35:20.625Z,15.40
2022-09-21T19:37:48.597Z,15.30
2022-09-21T19:40:17.125Z,15.20
2022-09-21T19:42:50.861Z,15.20
2022-09-21T19:45:25.499Z,15.10
2022-09-21T19:47:55.098Z,15.10
2022-09-21T19:50:40.894Z,15.00
2022-09-21T19:53:29.135Z,15.00
2022-09-21T19:56:17.265Z,15.00
2022-09-21T19:59:05.068Z,14.90
2022-09-21T20:01:35.427Z,14.90
2022-09-21T20:04:02.920Z,14.90
2022-09-21T20:06:36.854Z,14.80
2022-09-21T20:09:10.522Z,14.80
2022-09-21T20:11:37.792Z,14.80
2022-09-21T20:14:25.345Z,14.70
2022-09-21T20:16:57.380Z,14.70
2022-09-21T20:19:44.888Z,14.70
2022-09-21T20:22:16.186Z,14.60
2022-09-21T20:24:49.862Z,14.60
2022-09-21T20:27:33.212Z,14.60
2022-09-21T20:30:01.591Z,14.60
2022-09-21T20:32:28.900Z,14.60
2022-09-21T20:34:56.536Z,14.50
2022-09-21T20:37:27.492Z,14.50
2022-09-21T20:39:54.982Z,14.50
2022-09-21T20:42:27.159Z,14.50
2022-09-21T20:44:54.509Z,14.40
2022-09-21T20:47:21.874Z,14.40
2022-09-21T20:49:49.459Z,14.40
2022-09-21T20:52:17.592Z,14.40
2022-09-21T20:54:49.286Z,14.30
2022-09-21T20:57:17.917Z,14.30
2022-09-21T20:59:45.201Z,14.30
2022-09-21T21:02:13.204Z,14.30
2022-09-21T21:04:40.875Z,14.20
2022-09-21T21:07:08.178Z,14.20
2022-09-21T21:09:35.906Z,14.10
2022-09-21T21:12:03.226Z,14.10
2022-09-21T21:14:30.600Z,14.10
2022-09-21T21:16:57.934Z,14.10
2022-09-21T21:19:25.266Z,14.10
2022-09-21T21:21:52.529Z,14.00
2022-09-21T21:24:38.395Z,14.00
2022-09-21T21:27:05.949Z,14.00
2022-09-21T21:29:33.341Z,13.90
2022-09-21T21:32:00.847Z,13.90
2022-09-21T21:34:28.207Z,14.00
2022-09-21T21:36:56.242Z,13.90
2022-09-21T21:39:23.579Z,13.90
2022-09-21T21:41:51.023Z,13.90
2022-09-21T21:44:18.331Z,13.90
2022-09-21T21:46:45.826Z,13.90
2022-09-21T21:49:13.714Z,13.90
2022-09-21T21:51:41.044Z,13.90
2022-09-21T21:54:08.839Z,13.90
2022-09-21T21:56:36.521Z,13.90
2022-09-21T21:59:03.951Z,13.90
2022-09-21T22:01:31.410Z,14.00
2022-09-21T22:04:00.153Z,14.00
2022-09-21T22:06:29.588Z,14.00
2022-09-21T22:08:57.257Z,13.90
2022-09-21T22:11:25.732Z,14.00
2022-09-21T22:13:58.681Z,14.00
2022-09-21T22:16:28.206Z,14.00
2022-09-21T22:18:56.293Z,14.00
2022-09-21T22:21:28.968Z,14.00
2022-09-21T22:24:00.657Z,14.00
2022-09-21T22:26:29.944Z,13.90
2022-09-21T22:28:58.620Z,13.90
2022-09-21T22:31:27.454Z,13.90
2022-09-21T22:33:55.794Z,13.90
2022-09-21T22:36:25.784Z,13.80
2022-09-21T22:38:53.753Z,13.80
2022-09-21T22:41:22.347Z,13.80
2022-09-21T22:43:51.062Z,13.80
2022-09-21T22:46:18.919Z,13.70
2022-09-21T22:48:46.236Z,13.70
2022-09-21T22:51:14.131Z,13.70
2022-09-21T22:53:41.777Z,13.60
2022-09-21T22:56:10.273Z,13.60
2022-09-21T22:58:38.783Z,13.50
2022-09-21T23:01:11.170Z,13.50
2022-09-21T23:03:39.163Z,13.40
2022-09-21T23:06:07.645Z,13.40
2022-09-21T23:08:35.624Z,13.30
2022-09-21T23:11:13.548Z,13.30
2022-09-21T23:13:41.497Z,13.30
2022-09-21T23:16:10.375Z,13.20
2022-09-21T23:18:38.648Z,13.20
2022-09-21T23:21:07.857Z,13.20
2022-09-21T23:23:35.270Z,13.20
2022-09-21T23:26:04.013Z,13.10
2022-09-21T23:28:31.626Z,13.10
2022-09-21T23:31:00.601Z,13.10
2022-09-21T23:33:31.718Z,13.00
2022-09-21T23:36:00.423Z,13.00
2022-09-21T23:38:29.603Z,13.00
2022-09-21T23:41:04.353Z,13.00
2022-09-21T23:43:31.849Z,13.00
2022-09-21T23:46:01.963Z,13.00
2022-09-21T23:48:29.840Z,12.90
2022-09-21T23:50:57.758Z,12.90
2022-09-21T23:53:25.657Z,12.90
2022-09-21T23:55:55.285Z,12.90
2022-09-21T23:58:23.163Z,12.80
